createdAt,value
2023-05-11T00:00:28.046Z,13.00
2023-05-11T00:02:56.264Z,12.90
2023-05-11T00:05:24.542Z,12.90
2023-05-11T00:07:52.736Z,12.90
2023-05-11T00:10:21.123Z,12.90
2023-05-11T00:12:49.237Z,12.90
2023-05-11T00:15:18.683Z,12.80
2023-05-11T00:17:46.856Z,12.80
2023-05-11T00:20:15.150Z,12.80
2023-05-11T00:22:44.941Z,12.80
2023-05-11T00:25:13.200Z,12.90
2023-05-11T00:27:45.862Z,12.80
2023-05-11T00:30:16.216Z,12.80
2023-05-11T00:32:46.291Z,12.90
2023-05-11T00:35:14.578Z,12.90
2023-05-11T00:37:42.726Z,12.90
2023-05-11T00:40:11.384Z,13.00
2023-05-11T00:42:39.467Z,13.00
2023-05-11T00:45:08.660Z,13.10
2023-05-11T00:47:37.508Z,13.10
2023-05-11T00:50:08.520Z,13.00
2023-05-11T00:52:36.858Z,13.10
2023-05-11T00:55:05.269Z,13.00
2023-05-11T00:57:36.078Z,13.00
2023-05-11T01:00:04.497Z,13.00
2023-05-11T01:02:33.136Z,13.00
2023-05-11T01:05:01.596Z,12.90
2023-05-11T01:07:36.114Z,12.90
2023-05-11T01:10:15.187Z,12.90
2023-05-11T01:12:51.075Z,12.90
2023-05-11T01:15:25.565Z,12.90
2023-05-11T01:17:59.142Z,12.90
2023-05-11T01:20:30.518Z,12.80
2023-05-11T01:23:18.235Z,12.80
2023-05-11T01:26:04.877Z,12.70
2023-05-11T01:29:01.049Z,12.70
2023-05-11T01:31:33.256Z,12.60
2023-05-11T01:34:05.875Z,12.70
2023-05-11T01:36:37.320Z,12.70
2023-05-11T01:39:11.104Z,12.80
2023-05-11T01:41:41.322Z,12.80
2023-05-11T01:44:11.961Z,12.80
2023-05-11T01:46:41.392Z,12.90
2023-05-11T01:49:10.180Z,12.90
2023-05-11T01:51:39.716Z,12.90
2023-05-11T01:54:09.720Z,12.90
2023-05-11T01:56:44.439Z,12.90
2023-05-11T01:59:14.345Z,12.90
2023-05-11T02:01:44.251Z,12.90
2023-05-11T02:04:13.961Z,12.90
2023-05-11T02:06:44.322Z,12.90
2023-05-11T02:09:13.549Z,12.90
2023-05-11T02:11:43.517Z,12.90
2023-05-11T02:14:12.745Z,12.90
2023-05-11T02:16:41.960Z,12.90
2023-05-11T02:23:03.121Z,13.00
2023-05-11T02:25:32.078Z,12.90
2023-05-11T02:28:00.163Z,13.00
2023-05-11T02:30:30.602Z,13.00
2023-05-11T02:33:01.608Z,12.90
2023-05-11T02:35:31.233Z,13.00
2023-05-11T02:38:04.357Z,13.00
2023-05-11T02:40:34.917Z,13.00
2023-05-11T02:43:08.674Z,12.90
2023-05-11T02:45:38.736Z,12.90
2023-05-11T02:48:10.859Z,12.80
2023-05-11T02:50:40.946Z,12.80
2023-05-11T02:53:16.190Z,12.80
2023-05-11T02:55:44.335Z,12.80
2023-05-11T02:58:12.939Z,12.80
2023-05-11T03:06:11.784Z,12.80
2023-05-11T03:08:42.527Z,12.80
2023-05-11T03:12:11.192Z,12.80
2023-05-11T03:14:40.119Z,12.90
2023-05-11T03:17:09.368Z,13.00
2023-05-11T03:19:39.493Z,13.00
2023-05-11T03:22:08.234Z,13.10
2023-05-11T03:24:38.520Z,13.00
2023-05-11T03:27:09.391Z,13.00
2023-05-11T03:29:40.092Z,13.10
2023-05-11T03:32:08.241Z,13.00
2023-05-11T03:34:36.331Z,13.00
2023-05-11T03:37:06.900Z,13.00
2023-05-11T03:39:39.852Z,13.00
2023-05-11T03:42:08.936Z,13.00
2023-05-11T03:44:38.082Z,13.00
2023-05-11T03:47:07.852Z,12.90
2023-05-11T03:49:38.460Z,12.90
2023-05-11T03:52:07.402Z,12.90
2023-05-11T03:54:35.860Z,12.90
2023-05-11T03:57:05.810Z,13.00
2023-05-11T03:59:33.975Z,13.00
2023-05-11T04:02:02.086Z,12.90
2023-05-11T04:04:31.034Z,13.00
2023-05-11T04:06:59.808Z,12.90
2023-05-11T04:09:28.230Z,12.90
2023-05-11T04:11:56.304Z,12.90
2023-05-11T04:14:25.815Z,12.80
2023-05-11T04:16:53.960Z,12.80
2023-05-11T04:19:22.091Z,12.80
2023-05-11T04:21:50.155Z,12.80
2023-05-11T04:24:18.311Z,12.80
2023-05-11T04:26:46.397Z,12.90
2023-05-11T04:29:14.529Z,13.00
2023-05-11T04:31:44.222Z,12.90
2023-05-11T04:34:12.357Z,13.00
2023-05-11T04:36:40.494Z,13.00
2023-05-11T04:39:08.756Z,13.00
2023-05-11T04:41:36.890Z,12.90
2023-05-11T04:44:05.172Z,12.90
2023-05-11T04:46:33.337Z,12.90
2023-05-11T04:49:02.840Z,13.00
2023-05-11T04:51:31.017Z,13.00
2023-05-11T04:53:59.162Z,13.00
2023-05-11T04:56:27.277Z,13.10
2023-05-11T04:58:55.420Z,13.20
2023-05-11T05:01:23.583Z,13.20
2023-05-11T05:03:51.883Z,13.20
2023-05-11T05:06:21.654Z,13.30
2023-05-11T05:08:49.868Z,13.30
2023-05-11T05:11:18.027Z,13.40
2023-05-11T05:13:46.172Z,13.40
2023-05-11T05:16:14.439Z,13.50
2023-05-11T05:18:42.667Z,13.70
2023-05-11T05:21:10.848Z,13.80
2023-05-11T05:23:40.340Z,14.00
2023-05-11T05:26:08.496Z,14.20
2023-05-11T05:28:36.860Z,14.40
2023-05-11T05:31:05.046Z,14.40
2023-05-11T05:41:16.606Z,15.50
2023-05-11T05:43:44.729Z,15.70
2023-05-11T05:46:12.903Z,15.90
2023-05-11T05:48:41.751Z,16.00
2023-05-11T05:51:09.975Z,16.40
2023-05-11T05:53:38.511Z,16.60
2023-05-11T05:56:07.557Z,16.70
2023-05-11T05:58:36.996Z,16.90
2023-05-11T06:01:05.216Z,16.90
2023-05-11T06:03:33.523Z,17.10
2023-05-11T06:06:02.814Z,17.40
2023-05-11T06:08:31.015Z,17.70
2023-05-11T06:10:59.446Z,17.50
2023-05-11T06:13:27.576Z,17.20
2023-05-11T06:15:57.058Z,16.90
2023-05-11T06:18:25.148Z,16.30
2023-05-11T06:20:53.388Z,15.90
2023-05-11T06:23:21.668Z,15.60
2023-05-11T06:25:49.778Z,15.40
2023-05-11T06:28:17.916Z,15.60
2023-05-11T06:30:46.192Z,15.70
2023-05-11T06:33:15.644Z,15.70
2023-05-11T06:35:43.867Z,15.70
2023-05-11T06:38:11.956Z,15.70
2023-05-11T06:40:40.764Z,15.90
2023-05-11T06:43:09.246Z,15.70
2023-05-11T06:45:37.670Z,15.40
2023-05-11T06:48:06.735Z,15.50
2023-05-11T06:50:36.313Z,15.60
2023-05-11T06:53:04.452Z,15.60
2023-05-11T06:55:32.672Z,15.60
2023-05-11T06:58:00.794Z,15.60
2023-05-11T07:00:29.117Z,15.80
2023-05-11T07:02:57.373Z,15.80
2023-05-11T07:05:25.556Z,15.80
2023-05-11T07:07:55.050Z,15.70
2023-05-11T07:10:23.306Z,15.60
2023-05-11T07:12:51.633Z,15.60
2023-05-11T07:15:19.821Z,15.50
2023-05-11T07:17:48.345Z,15.40
2023-05-11T07:20:16.925Z,15.30
2023-05-11T07:22:45.189Z,15.40
2023-05-11T07:29:06.442Z,15.60
2023-05-11T07:31:35.541Z,15.70
2023-05-11T07:34:04.279Z,15.80
2023-05-11T07:36:33.104Z,15.80
2023-05-11T07:39:01.425Z,15.90
2023-05-11T07:41:31.007Z,16.00
2023-05-11T07:44:01.550Z,16.00
2023-05-11T07:46:31.147Z,16.00
2023-05-11T07:49:11.264Z,16.00
2023-05-11T07:51:45.336Z,16.10
2023-05-11T07:54:13.642Z,16.10
2023-05-11T07:56:41.950Z,16.30
2023-05-11T07:59:10.102Z,16.40
2023-05-11T08:01:39.703Z,16.50
2023-05-11T08:04:07.793Z,16.20
2023-05-11T08:06:36.119Z,16.10
2023-05-11T08:09:04.620Z,16.30
2023-05-11T08:11:32.772Z,16.40
2023-05-11T08:14:00.932Z,16.50
2023-05-11T08:16:29.141Z,16.50
2023-05-11T08:18:58.674Z,16.50
2023-05-11T08:21:26.848Z,16.60
2023-05-11T08:23:54.982Z,16.60
2023-05-11T08:26:23.088Z,16.50
2023-05-11T08:28:52.172Z,16.20
2023-05-11T08:31:20.551Z,16.20
2023-05-11T08:33:48.873Z,16.40
2023-05-11T08:36:18.714Z,16.60
2023-05-11T08:38:46.833Z,16.70
2023-05-11T08:41:15.190Z,16.70
2023-05-11T08:43:46.793Z,16.80
2023-05-11T08:46:19.171Z,16.90
2023-05-11T08:48:47.392Z,16.80
2023-05-11T08:51:15.826Z,16.90
2023-05-11T08:53:45.878Z,16.80
2023-05-11T08:56:16.491Z,17.00
2023-05-11T08:58:45.189Z,17.30
2023-05-11T09:01:13.588Z,17.40
2023-05-11T09:03:43.844Z,17.50
2023-05-11T09:06:12.880Z,17.50
2023-05-11T09:08:41.498Z,17.60
2023-05-11T09:11:11.923Z,17.70
2023-05-11T09:13:40.389Z,17.90
2023-05-11T09:16:19.601Z,17.80
2023-05-11T09:19:02.310Z,18.00
2023-05-11T09:21:32.194Z,18.20
2023-05-11T09:24:00.861Z,18.00
2023-05-11T09:26:30.400Z,17.70
2023-05-11T09:31:41.298Z,17.90
2023-05-11T09:34:17.367Z,17.90
2023-05-11T09:36:46.692Z,17.60
2023-05-11T09:39:15.822Z,17.80
2023-05-11T09:41:46.541Z,17.50
2023-05-11T09:44:16.413Z,17.50
2023-05-11T09:46:45.902Z,17.70
2023-05-11T09:49:14.278Z,17.50
2023-05-11T09:51:42.734Z,17.50
2023-05-11T09:54:19.111Z,17.40
2023-05-11T09:56:50.207Z,17.50
2023-05-11T09:59:37.107Z,17.50
2023-05-11T10:02:22.199Z,17.30
2023-05-11T10:04:50.981Z,17.10
2023-05-11T10:07:28.889Z,17.20
2023-05-11T10:09:58.611Z,17.40
2023-05-11T10:12:28.670Z,17.60
2023-05-11T10:14:59.939Z,17.40
2023-05-11T10:17:30.603Z,17.20
2023-05-11T10:19:59.878Z,17.10
2023-05-11T10:22:29.981Z,17.00
2023-05-11T10:24:59.091Z,17.00
2023-05-11T10:27:28.952Z,17.20
2023-05-11T10:29:59.367Z,17.50
2023-05-11T10:32:28.535Z,17.50
2023-05-11T10:34:58.050Z,17.50
2023-05-11T10:37:26.686Z,17.60
2023-05-11T10:39:54.941Z,17.90
2023-05-11T10:42:56.463Z,18.00
2023-05-11T10:45:27.887Z,17.70
2023-05-11T10:48:33.141Z,17.70
2023-05-11T10:51:21.832Z,17.70
2023-05-11T10:54:05.386Z,17.50
2023-05-11T10:57:04.231Z,17.50
2023-05-11T10:59:52.880Z,17.50
2023-05-11T11:02:21.157Z,17.40
2023-05-11T11:04:51.314Z,17.10
2023-05-11T11:07:20.962Z,17.10
2023-05-11T11:09:54.122Z,17.20
2023-05-11T11:12:23.634Z,17.40
2023-05-11T11:15:01.251Z,17.40
2023-05-11T11:17:31.927Z,17.50
2023-05-11T11:20:01.591Z,17.40
2023-05-11T11:22:47.402Z,17.30
2023-05-11T11:25:17.209Z,17.30
2023-05-11T11:27:59.470Z,17.30
2023-05-11T11:30:30.785Z,17.10
2023-05-11T11:33:33.442Z,17.10
2023-05-11T11:36:01.754Z,17.10
2023-05-11T11:38:30.648Z,17.30
2023-05-11T11:40:58.932Z,17.50
2023-05-11T11:43:28.394Z,17.60
2023-05-11T11:45:58.621Z,17.80
2023-05-11T11:48:35.418Z,18.10
2023-05-11T11:51:05.735Z,18.20
2023-05-11T11:54:07.170Z,18.10
2023-05-11T11:56:40.905Z,18.20
2023-05-11T11:59:13.836Z,18.30
2023-05-11T12:01:44.726Z,18.30
2023-05-11T12:04:40.703Z,18.20
2023-05-11T12:07:12.110Z,18.10
2023-05-11T12:09:41.946Z,17.70
2023-05-11T12:12:11.412Z,17.60
2023-05-11T12:14:42.077Z,17.50
2023-05-11T12:17:15.973Z,17.30
2023-05-11T12:19:45.566Z,17.10
2023-05-11T12:22:16.286Z,16.90
2023-05-11T12:24:45.052Z,16.80
2023-05-11T12:27:13.400Z,16.50
2023-05-11T12:29:42.375Z,16.50
2023-05-11T12:32:15.090Z,16.50
2023-05-11T12:34:43.368Z,16.60
2023-05-11T12:37:11.484Z,16.60
2023-05-11T12:39:39.899Z,16.60
2023-05-11T12:42:08.083Z,16.30
2023-05-11T12:44:36.389Z,16.40
2023-05-11T12:47:04.946Z,16.40
2023-05-11T12:49:34.621Z,16.40
2023-05-11T12:52:09.053Z,16.60
2023-05-11T12:54:38.913Z,16.80
2023-05-11T12:57:08.780Z,17.10
2023-05-11T12:59:38.569Z,17.30
2023-05-11T13:02:08.290Z,17.30
2023-05-11T13:04:38.489Z,17.70
2023-05-11T13:07:06.749Z,17.90
2023-05-11T13:09:35.259Z,18.00
2023-05-11T13:12:12.040Z,18.30
2023-05-11T13:14:40.585Z,18.50
2023-05-11T13:17:08.727Z,18.60
2023-05-11T13:19:39.593Z,18.60
2023-05-11T13:22:08.209Z,18.80
2023-05-11T13:44:29.706Z,18.90
2023-05-11T13:46:57.863Z,18.80
2023-05-11T13:49:25.987Z,19.00
2023-05-11T13:51:55.459Z,18.90
2023-05-11T13:54:23.711Z,18.60
2023-05-11T13:56:52.174Z,18.70
2023-05-11T13:59:20.887Z,18.60
2023-05-11T14:01:50.444Z,18.40
2023-05-11T14:04:19.648Z,18.80
2023-05-11T14:06:47.851Z,19.00
2023-05-11T14:09:15.988Z,19.30
2023-05-11T14:11:44.233Z,19.40
2023-05-11T14:14:12.470Z,19.20
2023-05-11T14:16:40.567Z,19.40
2023-05-11T14:19:10.657Z,19.40
2023-05-11T14:21:39.451Z,19.40
2023-05-11T14:24:12.583Z,19.10
2023-05-11T14:26:41.398Z,18.80
2023-05-11T14:29:09.508Z,18.80
2023-05-11T14:31:38.643Z,19.00
2023-05-11T14:34:07.100Z,19.10
2023-05-11T14:36:37.305Z,18.90
2023-05-11T14:39:05.646Z,18.70
2023-05-11T14:41:33.840Z,18.50
2023-05-11T14:44:01.959Z,18.40
2023-05-11T14:46:30.304Z,18.60
2023-05-11T14:48:58.544Z,18.50
2023-05-11T14:51:26.758Z,18.70
2023-05-11T14:53:56.310Z,18.80
2023-05-11T14:56:24.500Z,18.70
2023-05-11T14:58:52.795Z,18.90
2023-05-11T15:01:20.933Z,18.80
2023-05-11T15:03:49.135Z,18.80
2023-05-11T15:06:21.455Z,18.90
2023-05-11T15:08:49.955Z,18.60
2023-05-11T15:11:19.885Z,18.50
2023-05-11T15:13:48.549Z,18.80
2023-05-11T15:16:16.929Z,18.90
2023-05-11T15:18:45.102Z,18.70
2023-05-11T15:21:13.354Z,18.70
2023-05-11T15:23:41.547Z,18.60
2023-05-11T15:26:10.041Z,18.70
2023-05-11T15:28:39.766Z,19.00
2023-05-11T15:31:07.915Z,18.80
2023-05-11T15:33:36.080Z,18.50
2023-05-11T15:36:04.262Z,18.40
2023-05-11T15:38:32.355Z,18.30
2023-05-11T15:41:00.484Z,18.50
2023-05-11T15:43:28.597Z,18.50
2023-05-11T15:45:58.548Z,18.70
2023-05-11T15:48:26.959Z,18.90
2023-05-11T15:50:55.099Z,18.80
2023-05-11T15:53:23.316Z,18.90
2023-05-11T15:55:53.562Z,18.80
2023-05-11T15:58:21.816Z,18.90
2023-05-11T16:00:50.059Z,18.80
2023-05-11T16:03:20.124Z,18.70
2023-05-11T16:05:48.483Z,18.50
2023-05-11T16:08:17.147Z,18.50
2023-05-11T16:10:45.357Z,18.60
2023-05-11T16:13:13.456Z,18.50
2023-05-11T16:35:34.808Z,17.20
2023-05-11T16:38:05.622Z,16.90
2023-05-11T16:40:33.834Z,16.80
2023-05-11T16:43:01.940Z,16.50
2023-05-11T16:45:30.122Z,16.20
2023-05-11T16:47:58.308Z,16.20
2023-05-11T16:50:26.501Z,16.30
2023-05-11T16:52:56.032Z,16.20
2023-05-11T16:55:24.120Z,16.20
2023-05-11T16:57:52.893Z,16.30
2023-05-11T17:00:21.502Z,16.20
2023-05-11T17:02:50.007Z,16.10
2023-05-11T17:05:19.096Z,16.10
2023-05-11T17:07:47.257Z,16.00
2023-05-11T17:10:17.488Z,16.00
2023-05-11T17:12:45.838Z,15.90
2023-05-11T17:15:13.971Z,15.90
2023-05-11T17:17:42.183Z,15.90
2023-05-11T17:20:11.334Z,15.90
2023-05-11T17:22:39.609Z,15.90
2023-05-11T17:25:08.812Z,15.90
2023-05-11T17:27:38.345Z,15.80
2023-05-11T17:30:07.541Z,15.70
2023-05-11T17:32:35.847Z,15.70
2023-05-11T17:35:04.644Z,15.60
2023-05-11T17:37:33.286Z,15.70
2023-05-11T17:40:01.787Z,15.80
2023-05-11T17:42:29.901Z,15.80
2023-05-11T17:44:59.416Z,15.70
2023-05-11T17:47:27.616Z,15.60
2023-05-11T17:49:55.927Z,15.60
2023-05-11T17:52:25.097Z,15.60
2023-05-11T17:54:53.305Z,15.60
2023-05-11T17:57:23.345Z,15.70
2023-05-11T17:59:51.463Z,15.60
2023-05-11T18:02:20.990Z,15.60
2023-05-11T18:04:49.135Z,15.50
2023-05-11T18:07:17.287Z,15.50
2023-05-11T18:09:45.570Z,15.50
2023-05-11T18:12:13.711Z,15.40
2023-05-11T18:14:41.895Z,15.40
2023-05-11T18:17:10.045Z,15.40
2023-05-11T18:19:39.695Z,15.40
2023-05-11T18:22:07.897Z,15.30
2023-05-11T18:24:36.155Z,15.30
2023-05-11T18:27:04.340Z,15.30
2023-05-11T18:29:32.509Z,15.30
2023-05-11T18:32:00.964Z,15.30
2023-05-11T18:34:29.123Z,15.30
2023-05-11T18:36:58.767Z,15.30
2023-05-11T18:39:26.914Z,15.20
2023-05-11T18:41:55.058Z,15.20
2023-05-11T18:44:23.237Z,15.20
2023-05-11T18:46:51.344Z,15.10
2023-05-11T18:57:02.576Z,15.10
2023-05-11T18:59:30.743Z,15.00
2023-05-11T19:01:59.151Z,14.90
2023-05-11T19:04:27.465Z,14.90
2023-05-11T19:06:55.703Z,14.90
2023-05-11T19:09:24.128Z,14.90
2023-05-11T19:11:52.294Z,14.90
2023-05-11T19:14:21.770Z,14.90
2023-05-11T19:16:49.916Z,14.90
2023-05-11T19:19:18.108Z,14.90
2023-05-11T19:21:46.263Z,14.80
2023-05-11T19:24:14.377Z,14.80
2023-05-11T19:26:47.241Z,14.90
2023-05-11T19:29:22.755Z,14.90
2023-05-11T19:31:51.282Z,14.90
2023-05-11T19:34:19.348Z,14.90
2023-05-11T19:36:47.437Z,14.90
2023-05-11T19:39:16.242Z,14.80
2023-05-11T19:41:44.460Z,14.80
2023-05-11T19:44:12.623Z,14.80
2023-05-11T19:46:46.424Z,14.80
2023-05-11T19:49:15.472Z,14.80
2023-05-11T19:51:44.399Z,14.70
2023-05-11T19:54:13.077Z,14.70
2023-05-11T19:56:41.704Z,14.80
2023-05-11T19:59:09.876Z,14.80
2023-05-11T20:01:38.091Z,14.70
2023-05-11T20:04:07.693Z,14.70
2023-05-11T20:06:35.957Z,14.70
2023-05-11T20:09:05.185Z,14.70
2023-05-11T20:11:33.282Z,14.70
2023-05-11T20:14:02.090Z,14.70
2023-05-11T20:16:31.511Z,14.70
2023-05-11T20:18:59.889Z,14.70
2023-05-11T20:21:29.586Z,14.70
2023-05-11T20:23:57.751Z,14.70
2023-05-11T20:26:25.884Z,14.70
2023-05-11T20:28:54.051Z,14.70
2023-05-11T20:31:22.484Z,14.70
2023-05-11T20:36:21.579Z,14.60
2023-05-11T20:38:53.353Z,14.60
2023-05-11T20:41:23.249Z,14.60
2023-05-11T20:43:52.052Z,14.50
2023-05-11T20:46:20.699Z,14.50
2023-05-11T20:48:51.743Z,14.50
2023-05-11T20:51:23.190Z,14.40
2023-05-11T20:53:53.738Z,14.30
2023-05-11T20:56:22.010Z,14.30
2023-05-11T20:58:50.115Z,14.20
2023-05-11T21:01:18.391Z,14.20
2023-05-11T21:03:46.688Z,14.20
2023-05-11T21:06:14.969Z,14.10
2023-05-11T21:08:43.096Z,14.00
2023-05-11T21:11:12.647Z,13.90
2023-05-11T21:13:40.977Z,13.80
2023-05-11T21:16:09.297Z,13.80
2023-05-11T21:18:37.384Z,13.70
2023-05-11T21:21:05.772Z,13.70
2023-05-11T21:23:34.245Z,13.70
2023-05-11T21:26:03.238Z,13.70
2023-05-11T21:28:34.644Z,13.70
2023-05-11T21:31:02.763Z,13.70
2023-05-11T21:33:30.816Z,13.70
2023-05-11T21:35:59.456Z,13.70
2023-05-11T21:38:27.595Z,13.70
2023-05-11T21:40:56.316Z,13.70
2023-05-11T21:43:24.544Z,13.70
2023-05-11T21:45:54.055Z,13.70
2023-05-11T21:48:22.516Z,13.70
2023-05-11T21:50:54.340Z,13.70
2023-05-11T21:53:23.128Z,13.70
2023-05-11T21:55:51.372Z,13.70
2023-05-11T21:58:19.507Z,13.70
2023-05-11T22:00:47.636Z,13.60
2023-05-11T22:03:17.224Z,13.70
2023-05-11T22:05:45.433Z,13.70
2023-05-11T22:08:15.749Z,13.60
2023-05-11T22:10:44.197Z,13.60
2023-05-11T22:13:12.357Z,13.60
2023-05-11T22:15:40.483Z,13.60
2023-05-11T22:18:08.768Z,13.50
2023-05-11T22:20:38.311Z,13.50
2023-05-11T22:23:06.413Z,13.50
2023-05-11T22:25:34.481Z,13.50
2023-05-11T22:28:02.604Z,13.40
2023-05-11T22:30:30.744Z,13.40
2023-05-11T22:32:58.880Z,13.30
2023-05-11T22:35:27.239Z,13.30
2023-05-11T22:37:56.752Z,13.10
2023-05-11T22:40:24.927Z,13.10
2023-05-11T22:42:53.012Z,13.10
2023-05-11T22:45:21.167Z,13.10
2023-05-11T22:47:49.282Z,13.10
2023-05-11T22:50:17.727Z,13.10
2023-05-11T22:52:47.262Z,13.10
2023-05-11T22:55:16.880Z,13.00
2023-05-11T22:57:45.023Z,13.00
2023-05-11T23:00:14.124Z,13.00
2023-05-11T23:02:43.015Z,13.00
2023-05-11T23:05:11.597Z,12.90
2023-05-11T23:07:39.774Z,12.90
2023-05-11T23:10:08.901Z,12.90
2023-05-11T23:12:38.381Z,12.80
2023-05-11T23:15:07.820Z,12.80
2023-05-11T23:17:36.146Z,12.80
2023-05-11T23:20:04.956Z,12.80
2023-05-11T23:22:33.034Z,12.70
2023-05-11T23:25:02.047Z,12.70
2023-05-11T23:27:30.163Z,12.70
2023-05-11T23:29:59.624Z,12.70
2023-05-11T23:32:27.924Z,12.70
2023-05-11T23:34:56.006Z,12.70
2023-05-11T23:37:24.105Z,12.60
2023-05-11T23:39:52.708Z,12.60
2023-05-11T23:42:20.856Z,12.50
2023-05-11T23:44:49.252Z,12.50
2023-05-11T23:47:18.776Z,12.50
2023-05-11T23:49:46.963Z,12.50
2023-05-11T23:52:15.093Z,12.40
2023-05-11T23:54:43.133Z,12.40
2023-05-11T23:57:18.529Z,12.40
2023-05-11T23:59:46.612Z,12.40
